sensor_id;sensor_type;location;lat;lon;timestamp;P1;durP1;ratioP1;P2;durP2;ratioP2
59950;SDS011;45812;53.540;9.774;2023-04-24T00:02:21;8.80;;;5.57;;
59950;SDS011;45812;53.540;9.774;2023-04-24T00:04:47;8.88;;;5.93;;
59950;SDS011;45812;53.540;9.774;2023-04-24T00:07:13;10.35;;;6.55;;
59950;SDS011;45812;53.540;9.774;2023-04-24T00:09:42;13.25;;;6.25;;
59950;SDS011;45812;53.540;9.774;2023-04-24T00:12:08;9.05;;;5.85;;
59950;SDS011;45812;53.540;9.774;2023-04-24T00:14:33;12.73;;;6.03;;
59950;SDS011;45812;53.540;9.774;2023-04-24T00:17:00;9.55;;;5.60;;
59950;SDS011;45812;53.540;9.774;2023-04-24T00:19:25;8.50;;;5.50;;
59950;SDS011;45812;53.540;9.774;2023-04-24T00:21:50;9.00;;;5.68;;
59950;SDS011;45812;53.540;9.774;2023-04-24T00:24:16;9.77;;;5.63;;
59950;SDS011;45812;53.540;9.774;2023-04-24T00:26:42;8.70;;;5.30;;
59950;SDS011;45812;53.540;9.774;2023-04-24T00:29:07;9.63;;;5.43;;
59950;SDS011;45812;53.540;9.774;2023-04-24T00:31:32;8.40;;;5.65;;
59950;SDS011;45812;53.540;9.774;2023-04-24T00:34:00;9.65;;;5.57;;
59950;SDS011;45812;53.540;9.774;2023-04-24T00:36:26;10.85;;;5.53;;
59950;SDS011;45812;53.540;9.774;2023-04-24T00:38:51;8.15;;;5.53;;
59950;SDS011;45812;53.540;9.774;2023-04-24T00:41:17;10.90;;;5.80;;
59950;SDS011;45812;53.540;9.774;2023-04-24T00:43:42;15.32;;;6.47;;
59950;SDS011;45812;53.540;9.774;2023-04-24T00:46:08;8.68;;;4.93;;
59950;SDS011;45812;53.540;9.774;2023-04-24T00:48:33;7.68;;;5.55;;
59950;SDS011;45812;53.540;9.774;2023-04-24T00:50:59;7.30;;;5.72;;
59950;SDS011;45812;53.540;9.774;2023-04-24T00:53:24;8.35;;;5.22;;
59950;SDS011;45812;53.540;9.774;2023-04-24T00:55:50;8.75;;;5.20;;
59950;SDS011;45812;53.540;9.774;2023-04-24T00:58:16;7.30;;;5.63;;
59950;SDS011;45812;53.540;9.774;2023-04-24T01:00:41;7.18;;;5.05;;
59950;SDS011;45812;53.540;9.774;2023-04-24T01:03:06;8.95;;;5.53;;
59950;SDS011;45812;53.540;9.774;2023-04-24T01:05:32;8.32;;;5.60;;
59950;SDS011;45812;53.540;9.774;2023-04-24T01:07:58;8.88;;;4.90;;
59950;SDS011;45812;53.540;9.774;2023-04-24T01:10:24;8.13;;;5.03;;
59950;SDS011;45812;53.540;9.774;2023-04-24T01:12:52;6.95;;;4.70;;
59950;SDS011;45812;53.540;9.774;2023-04-24T01:15:18;10.68;;;5.07;;
59950;SDS011;45812;53.540;9.774;2023-04-24T01:17:43;6.65;;;4.63;;
59950;SDS011;45812;53.540;9.774;2023-04-24T01:20:08;7.97;;;5.00;;
59950;SDS011;45812;53.540;9.774;2023-04-24T01:22:34;7.13;;;4.70;;
59950;SDS011;45812;53.540;9.774;2023-04-24T01:25:00;6.05;;;4.40;;
59950;SDS011;45812;53.540;9.774;2023-04-24T01:27:26;8.55;;;4.80;;
59950;SDS011;45812;53.540;9.774;2023-04-24T01:29:51;9.55;;;4.72;;
59950;SDS011;45812;53.540;9.774;2023-04-24T01:32:17;6.82;;;4.47;;
59950;SDS011;45812;53.540;9.774;2023-04-24T01:34:43;6.88;;;4.13;;
59950;SDS011;45812;53.540;9.774;2023-04-24T01:37:09;4.88;;;3.90;;
59950;SDS011;45812;53.540;9.774;2023-04-24T01:39:34;4.07;;;3.67;;
59950;SDS011;45812;53.540;9.774;2023-04-24T01:42:00;5.15;;;3.60;;
59950;SDS011;45812;53.540;9.774;2023-04-24T01:44:27;5.50;;;3.75;;
59950;SDS011;45812;53.540;9.774;2023-04-24T01:46:52;4.28;;;3.20;;
59950;SDS011;45812;53.540;9.774;2023-04-24T01:49:18;6.20;;;3.22;;
59950;SDS011;45812;53.540;9.774;2023-04-24T01:51:44;4.00;;;3.60;;
59950;SDS011;45812;53.540;9.774;2023-04-24T01:54:10;7.50;;;3.67;;
59950;SDS011;45812;53.540;9.774;2023-04-24T01:56:35;3.63;;;3.33;;
59950;SDS011;45812;53.540;9.774;2023-04-24T01:59:05;4.78;;;3.17;;
59950;SDS011;45812;53.540;9.774;2023-04-24T02:01:34;5.25;;;3.10;;
59950;SDS011;45812;53.540;9.774;2023-04-24T02:04:03;2.83;;;2.55;;
59950;SDS011;45812;53.540;9.774;2023-04-24T02:06:30;5.53;;;3.40;;
59950;SDS011;45812;53.540;9.774;2023-04-24T02:08:58;3.97;;;3.10;;
59950;SDS011;45812;53.540;9.774;2023-04-24T02:11:24;3.25;;;2.80;;
59950;SDS011;45812;53.540;9.774;2023-04-24T02:13:49;4.32;;;3.00;;
59950;SDS011;45812;53.540;9.774;2023-04-24T02:16:16;3.83;;;2.58;;
59950;SDS011;45812;53.540;9.774;2023-04-24T02:18:41;2.50;;;2.30;;
59950;SDS011;45812;53.540;9.774;2023-04-24T02:21:07;4.00;;;3.05;;
59950;SDS011;45812;53.540;9.774;2023-04-24T02:23:32;4.47;;;2.95;;
59950;SDS011;45812;53.540;9.774;2023-04-24T02:25:57;2.88;;;2.67;;
59950;SDS011;45812;53.540;9.774;2023-04-24T02:28:22;3.72;;;2.47;;
59950;SDS011;45812;53.540;9.774;2023-04-24T02:30:48;2.50;;;2.30;;
59950;SDS011;45812;53.540;9.774;2023-04-24T02:33:13;2.75;;;2.38;;
59950;SDS011;45812;53.540;9.774;2023-04-24T02:35:38;2.65;;;2.40;;
59950;SDS011;45812;53.540;9.774;2023-04-24T02:38:03;3.58;;;3.22;;
59950;SDS011;45812;53.540;9.774;2023-04-24T02:40:29;2.75;;;2.20;;
59950;SDS011;45812;53.540;9.774;2023-04-24T02:42:54;2.92;;;2.63;;
59950;SDS011;45812;53.540;9.774;2023-04-24T02:45:20;3.55;;;2.25;;
59950;SDS011;45812;53.540;9.774;2023-04-24T02:47:45;2.75;;;2.55;;
59950;SDS011;45812;53.540;9.774;2023-04-24T02:50:10;5.35;;;3.00;;
59950;SDS011;45812;53.540;9.774;2023-04-24T02:52:35;4.70;;;2.83;;
59950;SDS011;45812;53.540;9.774;2023-04-24T02:55:01;4.45;;;3.28;;
59950;SDS011;45812;53.540;9.774;2023-04-24T02:57:26;3.78;;;2.83;;
59950;SDS011;45812;53.540;9.774;2023-04-24T02:59:51;3.47;;;2.97;;
59950;SDS011;45812;53.540;9.774;2023-04-24T03:02:17;4.47;;;2.65;;
59950;SDS011;45812;53.540;9.774;2023-04-24T03:04:42;3.35;;;3.00;;
59950;SDS011;45812;53.540;9.774;2023-04-24T03:07:07;3.15;;;2.85;;
59950;SDS011;45812;53.540;9.774;2023-04-24T03:09:33;3.55;;;3.25;;
59950;SDS011;45812;53.540;9.774;2023-04-24T03:11:58;3.30;;;3.00;;
59950;SDS011;45812;53.540;9.774;2023-04-24T03:14:23;6.72;;;2.70;;
59950;SDS011;45812;53.540;9.774;2023-04-24T03:16:49;3.55;;;2.80;;
59950;SDS011;45812;53.540;9.774;2023-04-24T03:19:15;3.47;;;3.17;;
59950;SDS011;45812;53.540;9.774;2023-04-24T03:21:40;2.72;;;2.40;;
59950;SDS011;45812;53.540;9.774;2023-04-24T03:24:06;5.30;;;2.85;;
59950;SDS011;45812;53.540;9.774;2023-04-24T03:26:33;3.63;;;2.70;;
59950;SDS011;45812;53.540;9.774;2023-04-24T03:28:58;4.20;;;2.83;;
59950;SDS011;45812;53.540;9.774;2023-04-24T03:31:23;3.50;;;2.88;;
59950;SDS011;45812;53.540;9.774;2023-04-24T03:33:49;2.90;;;2.38;;
59950;SDS011;45812;53.540;9.774;2023-04-24T03:36:14;3.70;;;2.65;;
59950;SDS011;45812;53.540;9.774;2023-04-24T03:38:39;3.83;;;3.35;;
59950;SDS011;45812;53.540;9.774;2023-04-24T03:41:05;2.88;;;2.30;;
59950;SDS011;45812;53.540;9.774;2023-04-24T03:43:30;2.90;;;2.53;;
59950;SDS011;45812;53.540;9.774;2023-04-24T03:45:58;2.33;;;2.13;;
59950;SDS011;45812;53.540;9.774;2023-04-24T03:48:23;2.35;;;2.15;;
59950;SDS011;45812;53.540;9.774;2023-04-24T03:50:48;3.25;;;2.72;;
59950;SDS011;45812;53.540;9.774;2023-04-24T03:53:13;3.20;;;2.80;;
59950;SDS011;45812;53.540;9.774;2023-04-24T03:55:39;9.45;;;2.97;;
59950;SDS011;45812;53.540;9.774;2023-04-24T03:58:04;2.88;;;2.47;;
59950;SDS011;45812;53.540;9.774;2023-04-24T04:00:29;3.50;;;2.47;;
59950;SDS011;45812;53.540;9.774;2023-04-24T04:02:56;4.13;;;2.83;;
59950;SDS011;45812;53.540;9.774;2023-04-24T04:05:21;2.63;;;2.40;;
59950;SDS011;45812;53.540;9.774;2023-04-24T04:07:47;2.53;;;2.25;;
59950;SDS011;45812;53.540;9.774;2023-04-24T04:10:12;3.03;;;2.72;;
59950;SDS011;45812;53.540;9.774;2023-04-24T04:12:37;2.92;;;2.63;;
59950;SDS011;45812;53.540;9.774;2023-04-24T04:15:02;3.35;;;2.45;;
59950;SDS011;45812;53.540;9.774;2023-04-24T04:17:29;3.28;;;2.33;;
59950;SDS011;45812;53.540;9.774;2023-04-24T04:19:54;2.75;;;2.28;;
59950;SDS011;45812;53.540;9.774;2023-04-24T04:22:21;2.67;;;2.33;;
59950;SDS011;45812;53.540;9.774;2023-04-24T04:24:46;4.07;;;2.75;;
59950;SDS011;45812;53.540;9.774;2023-04-24T04:27:11;2.78;;;2.58;;
59950;SDS011;45812;53.540;9.774;2023-04-24T04:29:37;4.13;;;2.40;;
59950;SDS011;45812;53.540;9.774;2023-04-24T04:32:03;2.92;;;2.65;;
59950;SDS011;45812;53.540;9.774;2023-04-24T04:34:28;4.30;;;2.17;;
59950;SDS011;45812;53.540;9.774;2023-04-24T04:36:54;2.50;;;2.30;;
59950;SDS011;45812;53.540;9.774;2023-04-24T04:39:20;1.90;;;1.80;;
59950;SDS011;45812;53.540;9.774;2023-04-24T04:41:45;3.83;;;2.33;;
59950;SDS011;45812;53.540;9.774;2023-04-24T04:44:14;3.40;;;1.80;;
59950;SDS011;45812;53.540;9.774;2023-04-24T04:46:39;3.58;;;1.92;;
59950;SDS011;45812;53.540;9.774;2023-04-24T04:49:06;2.30;;;2.10;;
59950;SDS011;45812;53.540;9.774;2023-04-24T04:51:33;3.00;;;2.20;;
59950;SDS011;45812;53.540;9.774;2023-04-24T04:53:59;1.80;;;1.70;;
59950;SDS011;45812;53.540;9.774;2023-04-24T04:56:24;2.70;;;2.03;;
59950;SDS011;45812;53.540;9.774;2023-04-24T04:58:49;2.38;;;2.20;;
59950;SDS011;45812;53.540;9.774;2023-04-24T05:01:15;1.90;;;1.75;;
59950;SDS011;45812;53.540;9.774;2023-04-24T05:03:40;1.98;;;1.73;;
59950;SDS011;45812;53.540;9.774;2023-04-24T05:06:05;4.40;;;1.73;;
59950;SDS011;45812;53.540;9.774;2023-04-24T05:08:31;2.47;;;1.98;;
59950;SDS011;45812;53.540;9.774;2023-04-24T05:10:56;1.90;;;1.80;;
59950;SDS011;45812;53.540;9.774;2023-04-24T05:13:21;2.35;;;2.15;;
59950;SDS011;45812;53.540;9.774;2023-04-24T05:15:47;6.05;;;2.40;;
59950;SDS011;45812;53.540;9.774;2023-04-24T05:18:12;3.90;;;1.92;;
59950;SDS011;45812;53.540;9.774;2023-04-24T05:20:37;2.35;;;1.77;;
59950;SDS011;45812;53.540;9.774;2023-04-24T05:23:02;1.58;;;1.48;;
59950;SDS011;45812;53.540;9.774;2023-04-24T05:25:28;1.75;;;1.48;;
59950;SDS011;45812;53.540;9.774;2023-04-24T05:27:53;1.75;;;1.65;;
59950;SDS011;45812;53.540;9.774;2023-04-24T05:30:18;1.60;;;1.50;;
59950;SDS011;45812;53.540;9.774;2023-04-24T05:32:44;4.75;;;1.83;;
59950;SDS011;45812;53.540;9.774;2023-04-24T05:35:09;3.47;;;1.42;;
59950;SDS011;45812;53.540;9.774;2023-04-24T05:37:35;1.75;;;1.60;;
59950;SDS011;45812;53.540;9.774;2023-04-24T05:40:00;1.75;;;1.65;;
59950;SDS011;45812;53.540;9.774;2023-04-24T05:42:25;2.22;;;1.33;;
59950;SDS011;45812;53.540;9.774;2023-04-24T05:44:51;2.25;;;1.67;;
59950;SDS011;45812;53.540;9.774;2023-04-24T05:47:16;2.10;;;1.55;;
59950;SDS011;45812;53.540;9.774;2023-04-24T05:49:41;1.55;;;1.45;;
59950;SDS011;45812;53.540;9.774;2023-04-24T05:52:06;1.95;;;1.63;;
59950;SDS011;45812;53.540;9.774;2023-04-24T05:54:33;2.20;;;1.45;;
59950;SDS011;45812;53.540;9.774;2023-04-24T05:56:59;3.53;;;1.60;;
59950;SDS011;45812;53.540;9.774;2023-04-24T05:59:25;2.10;;;1.92;;
59950;SDS011;45812;53.540;9.774;2023-04-24T06:01:51;2.17;;;1.98;;
59950;SDS011;45812;53.540;9.774;2023-04-24T06:04:16;1.73;;;1.63;;
59950;SDS011;45812;53.540;9.774;2023-04-24T06:06:41;4.38;;;1.75;;
59950;SDS011;45812;53.540;9.774;2023-04-24T06:09:07;1.55;;;1.45;;
59950;SDS011;45812;53.540;9.774;2023-04-24T06:11:32;1.95;;;1.75;;
59950;SDS011;45812;53.540;9.774;2023-04-24T06:13:57;1.48;;;1.38;;
59950;SDS011;45812;53.540;9.774;2023-04-24T06:16:22;1.75;;;1.40;;
59950;SDS011;45812;53.540;9.774;2023-04-24T06:18:48;1.80;;;1.70;;
59950;SDS011;45812;53.540;9.774;2023-04-24T06:21:13;1.13;;;1.02;;
59950;SDS011;45812;53.540;9.774;2023-04-24T06:23:40;2.60;;;2.40;;
59950;SDS011;45812;53.540;9.774;2023-04-24T06:26:06;3.53;;;2.20;;
59950;SDS011;45812;53.540;9.774;2023-04-24T06:28:31;3.72;;;2.03;;
59950;SDS011;45812;53.540;9.774;2023-04-24T06:30:56;1.52;;;1.42;;
59950;SDS011;45812;53.540;9.774;2023-04-24T06:33:22;2.13;;;1.92;;
59950;SDS011;45812;53.540;9.774;2023-04-24T06:35:47;2.30;;;2.10;;
59950;SDS011;45812;53.540;9.774;2023-04-24T06:38:12;2.75;;;2.13;;
59950;SDS011;45812;53.540;9.774;2023-04-24T06:40:38;2.05;;;1.95;;
59950;SDS011;45812;53.540;9.774;2023-04-24T06:43:03;3.88;;;2.30;;
59950;SDS011;45812;53.540;9.774;2023-04-24T06:45:29;2.58;;;2.33;;
59950;SDS011;45812;53.540;9.774;2023-04-24T06:47:54;2.67;;;2.10;;
59950;SDS011;45812;53.540;9.774;2023-04-24T06:50:20;2.40;;;2.00;;
59950;SDS011;45812;53.540;9.774;2023-04-24T06:52:46;2.47;;;2.28;;
59950;SDS011;45812;53.540;9.774;2023-04-24T06:55:11;3.38;;;2.72;;
59950;SDS011;45812;53.540;9.774;2023-04-24T06:57:37;3.75;;;2.30;;
59950;SDS011;45812;53.540;9.774;2023-04-24T07:00:03;4.47;;;2.83;;
59950;SDS011;45812;53.540;9.774;2023-04-24T07:02:30;3.05;;;2.47;;
59950;SDS011;45812;53.540;9.774;2023-04-24T07:04:55;3.50;;;3.13;;
59950;SDS011;45812;53.540;9.774;2023-04-24T07:07:20;5.47;;;3.80;;
59950;SDS011;45812;53.540;9.774;2023-04-24T07:09:46;4.93;;;3.53;;
59950;SDS011;45812;53.540;9.774;2023-04-24T07:12:11;3.90;;;3.50;;
59950;SDS011;45812;53.540;9.774;2023-04-24T07:14:37;3.58;;;3.25;;
59950;SDS011;45812;53.540;9.774;2023-04-24T07:17:03;4.45;;;3.42;;
59950;SDS011;45812;53.540;9.774;2023-04-24T07:19:29;4.50;;;3.58;;
59950;SDS011;45812;53.540;9.774;2023-04-24T07:21:55;4.03;;;3.42;;
59950;SDS011;45812;53.540;9.774;2023-04-24T07:24:20;7.28;;;3.60;;
59950;SDS011;45812;53.540;9.774;2023-04-24T07:26:45;3.88;;;3.47;;
59950;SDS011;45812;53.540;9.774;2023-04-24T07:29:11;3.88;;;3.47;;
59950;SDS011;45812;53.540;9.774;2023-04-24T07:31:36;7.57;;;4.00;;
59950;SDS011;45812;53.540;9.774;2023-04-24T07:34:02;4.95;;;3.60;;
59950;SDS011;45812;53.540;9.774;2023-04-24T07:36:27;7.03;;;4.30;;
59950;SDS011;45812;53.540;9.774;2023-04-24T07:38:52;6.13;;;4.47;;
59950;SDS011;45812;53.540;9.774;2023-04-24T07:41:19;7.70;;;4.30;;
59950;SDS011;45812;53.540;9.774;2023-04-24T07:43:45;4.35;;;3.95;;
59950;SDS011;45812;53.540;9.774;2023-04-24T07:46:10;4.78;;;3.45;;
59950;SDS011;45812;53.540;9.774;2023-04-24T07:48:36;4.85;;;3.92;;
59950;SDS011;45812;53.540;9.774;2023-04-24T07:51:01;7.03;;;4.45;;
59950;SDS011;45812;53.540;9.774;2023-04-24T07:53:26;6.07;;;4.53;;
59950;SDS011;45812;53.540;9.774;2023-04-24T07:55:51;7.25;;;4.47;;
59950;SDS011;45812;53.540;9.774;2023-04-24T07:58:17;4.67;;;4.03;;
59950;SDS011;45812;53.540;9.774;2023-04-24T08:00:42;4.70;;;3.70;;
59950;SDS011;45812;53.540;9.774;2023-04-24T08:03:07;5.65;;;4.03;;
59950;SDS011;45812;53.540;9.774;2023-04-24T08:05:32;5.53;;;3.37;;
59950;SDS011;45812;53.540;9.774;2023-04-24T08:07:58;5.88;;;3.55;;
59950;SDS011;45812;53.540;9.774;2023-04-24T08:10:23;5.70;;;3.00;;
59950;SDS011;45812;53.540;9.774;2023-04-24T08:12:49;6.30;;;3.97;;
59950;SDS011;45812;53.540;9.774;2023-04-24T08:15:14;5.32;;;3.85;;
59950;SDS011;45812;53.540;9.774;2023-04-24T08:17:40;7.45;;;4.07;;
59950;SDS011;45812;53.540;9.774;2023-04-24T08:20:05;6.57;;;3.95;;
59950;SDS011;45812;53.540;9.774;2023-04-24T08:22:35;5.70;;;4.20;;
59950;SDS011;45812;53.540;9.774;2023-04-24T08:25:00;5.18;;;3.42;;
59950;SDS011;45812;53.540;9.774;2023-04-24T08:27:26;3.70;;;3.38;;
59950;SDS011;45812;53.540;9.774;2023-04-24T08:29:55;5.45;;;3.45;;
59950;SDS011;45812;53.540;9.774;2023-04-24T08:32:20;8.27;;;4.57;;
59950;SDS011;45812;53.540;9.774;2023-04-24T08:34:45;5.65;;;4.70;;
59950;SDS011;45812;53.540;9.774;2023-04-24T08:37:10;5.78;;;4.32;;
59950;SDS011;45812;53.540;9.774;2023-04-24T08:39:37;6.57;;;4.15;;
59950;SDS011;45812;53.540;9.774;2023-04-24T08:42:03;6.75;;;4.78;;
59950;SDS011;45812;53.540;9.774;2023-04-24T08:44:32;6.30;;;4.53;;
59950;SDS011;45812;53.540;9.774;2023-04-24T08:46:58;7.78;;;5.50;;
59950;SDS011;45812;53.540;9.774;2023-04-24T08:49:25;7.60;;;5.32;;
59950;SDS011;45812;53.540;9.774;2023-04-24T08:51:52;10.73;;;5.40;;
59950;SDS011;45812;53.540;9.774;2023-04-24T08:54:18;9.57;;;4.50;;
59950;SDS011;45812;53.540;9.774;2023-04-24T08:56:44;6.35;;;5.00;;
59950;SDS011;45812;53.540;9.774;2023-04-24T08:59:10;9.13;;;5.75;;
59950;SDS011;45812;53.540;9.774;2023-04-24T09:01:36;8.93;;;5.70;;
59950;SDS011;45812;53.540;9.774;2023-04-24T09:04:04;6.57;;;5.07;;
59950;SDS011;45812;53.540;9.774;2023-04-24T09:06:32;8.20;;;4.97;;
59950;SDS011;45812;53.540;9.774;2023-04-24T09:09:01;8.07;;;5.20;;
59950;SDS011;45812;53.540;9.774;2023-04-24T09:11:29;8.38;;;5.78;;
59950;SDS011;45812;53.540;9.774;2023-04-24T09:13:55;7.00;;;5.00;;
59950;SDS011;45812;53.540;9.774;2023-04-24T09:16:21;7.50;;;5.47;;
59950;SDS011;45812;53.540;9.774;2023-04-24T09:18:49;8.60;;;5.43;;
59950;SDS011;45812;53.540;9.774;2023-04-24T09:21:14;7.63;;;5.22;;
59950;SDS011;45812;53.540;9.774;2023-04-24T09:23:40;10.82;;;5.78;;
59950;SDS011;45812;53.540;9.774;2023-04-24T09:26:05;7.07;;;5.15;;
59950;SDS011;45812;53.540;9.774;2023-04-24T09:28:32;8.45;;;5.57;;
59950;SDS011;45812;53.540;9.774;2023-04-24T09:31:11;7.78;;;5.05;;
59950;SDS011;45812;53.540;9.774;2023-04-24T09:33:38;7.60;;;5.30;;
59950;SDS011;45812;53.540;9.774;2023-04-24T09:36:04;9.05;;;5.18;;
59950;SDS011;45812;53.540;9.774;2023-04-24T09:38:31;7.65;;;5.20;;
59950;SDS011;45812;53.540;9.774;2023-04-24T09:41:05;8.00;;;5.10;;
59950;SDS011;45812;53.540;9.774;2023-04-24T09:43:31;8.10;;;5.28;;
59950;SDS011;45812;53.540;9.774;2023-04-24T09:45:57;8.00;;;5.05;;
59950;SDS011;45812;53.540;9.774;2023-04-24T09:48:30;8.95;;;5.50;;
59950;SDS011;45812;53.540;9.774;2023-04-24T09:51:00;12.13;;;5.75;;
59950;SDS011;45812;53.540;9.774;2023-04-24T09:53:27;10.68;;;4.93;;
59950;SDS011;45812;53.540;9.774;2023-04-24T09:55:52;11.75;;;6.10;;
59950;SDS011;45812;53.540;9.774;2023-04-24T09:58:18;10.32;;;6.05;;
59950;SDS011;45812;53.540;9.774;2023-04-24T10:00:49;11.43;;;6.38;;
59950;SDS011;45812;53.540;9.774;2023-04-24T10:03:18;13.27;;;6.45;;
59950;SDS011;45812;53.540;9.774;2023-04-24T10:05:44;17.58;;;7.40;;
59950;SDS011;45812;53.540;9.774;2023-04-24T10:08:11;10.13;;;5.55;;
59950;SDS011;45812;53.540;9.774;2023-04-24T10:10:38;11.90;;;6.80;;
59950;SDS011;45812;53.540;9.774;2023-04-24T10:13:09;13.48;;;6.68;;
59950;SDS011;45812;53.540;9.774;2023-04-24T10:15:36;13.55;;;6.50;;
59950;SDS011;45812;53.540;9.774;2023-04-24T10:18:03;11.68;;;6.75;;
59950;SDS011;45812;53.540;9.774;2023-04-24T10:20:31;11.35;;;6.78;;
59950;SDS011;45812;53.540;9.774;2023-04-24T10:22:57;11.65;;;6.88;;
59950;SDS011;45812;53.540;9.774;2023-04-24T10:25:24;11.63;;;7.25;;
59950;SDS011;45812;53.540;9.774;2023-04-24T10:27:52;15.02;;;7.70;;
59950;SDS011;45812;53.540;9.774;2023-04-24T10:30:19;13.88;;;7.00;;
59950;SDS011;45812;53.540;9.774;2023-04-24T10:32:45;12.85;;;7.20;;
59950;SDS011;45812;53.540;9.774;2023-04-24T10:35:12;16.95;;;8.32;;
59950;SDS011;45812;53.540;9.774;2023-04-24T10:37:45;18.20;;;7.47;;
59950;SDS011;45812;53.540;9.774;2023-04-24T10:40:16;14.88;;;8.18;;
59950;SDS011;45812;53.540;9.774;2023-04-24T10:42:43;12.38;;;7.35;;
59950;SDS011;45812;53.540;9.774;2023-04-24T10:45:16;14.93;;;7.30;;
59950;SDS011;45812;53.540;9.774;2023-04-24T10:48:01;11.40;;;6.80;;
59950;SDS011;45812;53.540;9.774;2023-04-24T10:50:28;14.07;;;7.47;;
59950;SDS011;45812;53.540;9.774;2023-04-24T10:53:04;14.60;;;6.90;;
59950;SDS011;45812;53.540;9.774;2023-04-24T10:55:41;16.92;;;7.30;;
59950;SDS011;45812;53.540;9.774;2023-04-24T10:58:08;10.60;;;6.45;;
59950;SDS011;45812;53.540;9.774;2023-04-24T11:00:35;15.30;;;7.10;;
59950;SDS011;45812;53.540;9.774;2023-04-24T11:03:03;13.07;;;7.80;;
59950;SDS011;45812;53.540;9.774;2023-04-24T11:05:49;13.05;;;7.45;;
59950;SDS011;45812;53.540;9.774;2023-04-24T11:08:15;14.05;;;7.43;;
59950;SDS011;45812;53.540;9.774;2023-04-24T11:10:54;13.40;;;7.68;;
59950;SDS011;45812;53.540;9.774;2023-04-24T11:13:25;12.80;;;7.20;;
59950;SDS011;45812;53.540;9.774;2023-04-24T11:29:41;15.00;;;8.02;;
59950;SDS011;45812;53.540;9.774;2023-04-24T11:32:23;11.30;;;7.15;;
59950;SDS011;45812;53.540;9.774;2023-04-24T11:34:51;13.18;;;7.72;;
59950;SDS011;45812;53.540;9.774;2023-04-24T11:37:43;16.73;;;8.07;;
59950;SDS011;45812;53.540;9.774;2023-04-24T11:40:13;14.40;;;6.90;;
59950;SDS011;45812;53.540;9.774;2023-04-24T11:42:41;12.68;;;7.20;;
59950;SDS011;45812;53.540;9.774;2023-04-24T11:45:08;11.70;;;6.57;;
59950;SDS011;45812;53.540;9.774;2023-04-24T11:47:35;11.35;;;5.78;;
59950;SDS011;45812;53.540;9.774;2023-04-24T11:50:01;10.48;;;6.43;;
59950;SDS011;45812;53.540;9.774;2023-04-24T11:52:28;12.20;;;6.75;;
59950;SDS011;45812;53.540;9.774;2023-04-24T11:54:55;10.93;;;6.22;;
59950;SDS011;45812;53.540;9.774;2023-04-24T11:57:20;13.27;;;6.57;;
59950;SDS011;45812;53.540;9.774;2023-04-24T11:59:47;8.63;;;5.97;;
59950;SDS011;45812;53.540;9.774;2023-04-24T12:02:25;9.98;;;5.93;;
59950;SDS011;45812;53.540;9.774;2023-04-24T12:04:52;13.80;;;6.10;;
59950;SDS011;45812;53.540;9.774;2023-04-24T12:07:18;11.88;;;6.10;;
59950;SDS011;45812;53.540;9.774;2023-04-24T12:09:45;10.30;;;5.22;;
59950;SDS011;45812;53.540;9.774;2023-04-24T12:12:12;8.82;;;5.50;;
59950;SDS011;45812;53.540;9.774;2023-04-24T12:17:13;9.63;;;6.03;;
59950;SDS011;45812;53.540;9.774;2023-04-24T12:19:44;9.95;;;6.20;;
59950;SDS011;45812;53.540;9.774;2023-04-24T12:22:10;10.43;;;5.50;;
59950;SDS011;45812;53.540;9.774;2023-04-24T12:24:54;11.40;;;5.78;;
59950;SDS011;45812;53.540;9.774;2023-04-24T12:27:21;9.80;;;6.40;;
59950;SDS011;45812;53.540;9.774;2023-04-24T12:29:56;9.82;;;5.82;;
59950;SDS011;45812;53.540;9.774;2023-04-24T12:32:22;9.23;;;6.15;;
59950;SDS011;45812;53.540;9.774;2023-04-24T12:34:49;8.85;;;5.80;;
59950;SDS011;45812;53.540;9.774;2023-04-24T12:37:15;12.27;;;6.80;;
59950;SDS011;45812;53.540;9.774;2023-04-24T12:39:44;7.28;;;5.22;;
59950;SDS011;45812;53.540;9.774;2023-04-24T12:42:29;8.15;;;5.25;;
59950;SDS011;45812;53.540;9.774;2023-04-24T12:44:59;7.95;;;5.60;;
59950;SDS011;45812;53.540;9.774;2023-04-24T12:47:26;8.40;;;5.50;;
59950;SDS011;45812;53.540;9.774;2023-04-24T12:49:52;6.38;;;4.68;;
59950;SDS011;45812;53.540;9.774;2023-04-24T12:52:18;7.18;;;4.68;;
59950;SDS011;45812;53.540;9.774;2023-04-24T12:54:45;8.13;;;5.20;;
59950;SDS011;45812;53.540;9.774;2023-04-24T12:57:10;7.18;;;4.88;;
59950;SDS011;45812;53.540;9.774;2023-04-24T12:59:35;7.82;;;5.20;;
59950;SDS011;45812;53.540;9.774;2023-04-24T13:02:01;8.32;;;5.18;;
59950;SDS011;45812;53.540;9.774;2023-04-24T13:04:26;11.27;;;5.25;;
59950;SDS011;45812;53.540;9.774;2023-04-24T13:06:51;9.93;;;5.22;;
59950;SDS011;45812;53.540;9.774;2023-04-24T13:09:17;6.97;;;5.00;;
59950;SDS011;45812;53.540;9.774;2023-04-24T13:11:42;6.30;;;4.30;;
59950;SDS011;45812;53.540;9.774;2023-04-24T13:14:07;6.88;;;5.07;;
59950;SDS011;45812;53.540;9.774;2023-04-24T13:16:32;7.63;;;5.25;;
59950;SDS011;45812;53.540;9.774;2023-04-24T13:18:58;7.78;;;4.88;;
59950;SDS011;45812;53.540;9.774;2023-04-24T13:21:23;7.38;;;5.35;;
59950;SDS011;45812;53.540;9.774;2023-04-24T13:23:48;10.87;;;5.50;;
59950;SDS011;45812;53.540;9.774;2023-04-24T13:26:14;6.25;;;4.88;;
59950;SDS011;45812;53.540;9.774;2023-04-24T13:28:39;7.43;;;5.57;;
59950;SDS011;45812;53.540;9.774;2023-04-24T13:31:04;5.72;;;4.80;;
59950;SDS011;45812;53.540;9.774;2023-04-24T13:33:31;6.80;;;5.32;;
59950;SDS011;45812;53.540;9.774;2023-04-24T13:35:56;7.50;;;5.38;;
59950;SDS011;45812;53.540;9.774;2023-04-24T13:38:21;7.50;;;5.45;;
59950;SDS011;45812;53.540;9.774;2023-04-24T13:40:47;7.43;;;5.10;;
59950;SDS011;45812;53.540;9.774;2023-04-24T13:43:12;7.18;;;5.13;;
59950;SDS011;45812;53.540;9.774;2023-04-24T13:45:38;8.38;;;4.95;;
59950;SDS011;45812;53.540;9.774;2023-04-24T13:48:03;6.97;;;4.68;;
59950;SDS011;45812;53.540;9.774;2023-04-24T13:50:28;7.78;;;4.88;;
59950;SDS011;45812;53.540;9.774;2023-04-24T13:52:54;6.15;;;4.80;;
59950;SDS011;45812;53.540;9.774;2023-04-24T13:55:21;6.88;;;4.60;;
59950;SDS011;45812;53.540;9.774;2023-04-24T13:57:46;10.32;;;5.50;;
59950;SDS011;45812;53.540;9.774;2023-04-24T14:00:12;8.10;;;5.50;;
59950;SDS011;45812;53.540;9.774;2023-04-24T14:02:38;6.78;;;4.93;;
59950;SDS011;45812;53.540;9.774;2023-04-24T14:05:03;5.30;;;4.67;;
59950;SDS011;45812;53.540;9.774;2023-04-24T14:07:29;7.05;;;4.97;;
59950;SDS011;45812;53.540;9.774;2023-04-24T14:09:54;7.30;;;4.82;;
59950;SDS011;45812;53.540;9.774;2023-04-24T14:12:19;5.47;;;4.43;;
59950;SDS011;45812;53.540;9.774;2023-04-24T14:14:46;8.05;;;5.10;;
59950;SDS011;45812;53.540;9.774;2023-04-24T14:17:12;7.75;;;5.45;;
59950;SDS011;45812;53.540;9.774;2023-04-24T14:19:37;9.20;;;5.22;;
59950;SDS011;45812;53.540;9.774;2023-04-24T14:22:02;11.40;;;6.50;;
59950;SDS011;45812;53.540;9.774;2023-04-24T14:24:28;11.25;;;6.63;;
59950;SDS011;45812;53.540;9.774;2023-04-24T14:26:53;10.20;;;6.93;;
59950;SDS011;45812;53.540;9.774;2023-04-24T14:29:18;11.10;;;6.07;;
59950;SDS011;45812;53.540;9.774;2023-04-24T14:31:44;10.38;;;6.70;;
59950;SDS011;45812;53.540;9.774;2023-04-24T14:34:09;9.40;;;6.40;;
59950;SDS011;45812;53.540;9.774;2023-04-24T14:36:35;11.25;;;6.93;;
59950;SDS011;45812;53.540;9.774;2023-04-24T14:39:00;11.45;;;6.72;;
59950;SDS011;45812;53.540;9.774;2023-04-24T14:41:28;12.68;;;6.72;;
59950;SDS011;45812;53.540;9.774;2023-04-24T14:43:53;10.30;;;5.50;;
59950;SDS011;45812;53.540;9.774;2023-04-24T14:46:19;11.82;;;7.10;;
59950;SDS011;45812;53.540;9.774;2023-04-24T14:48:44;14.57;;;7.47;;
59950;SDS011;45812;53.540;9.774;2023-04-24T14:51:10;10.90;;;6.63;;
59950;SDS011;45812;53.540;9.774;2023-04-24T14:53:35;12.10;;;5.57;;
59950;SDS011;45812;53.540;9.774;2023-04-24T14:56:00;8.93;;;5.43;;
59950;SDS011;45812;53.540;9.774;2023-04-24T14:58:25;9.68;;;5.85;;